createdAt,value
2024-05-09T00:01:24.403Z,96596.00
2024-05-09T00:02:24.359Z,96594.00
2024-05-09T00:03:24.358Z,96594.00
2024-05-09T00:04:24.279Z,96595.00
2024-05-09T00:05:24.334Z,96593.00
2024-05-09T00:06:24.271Z,96594.00
2024-05-09T00:07:24.277Z,96592.00
2024-05-09T00:08:24.408Z,96593.00
2024-05-09T00:09:24.291Z,96591.00
2024-05-09T00:10:29.324Z,96591.00
2024-05-09T00:11:25.389Z,96591.00
2024-05-09T00:12:24.368Z,96588.00
2024-05-09T00:13:24.314Z,96591.00
2024-05-09T00:14:24.385Z,96589.00
2024-05-09T00:15:24.292Z,96589.00
2024-05-09T00:16:24.292Z,96587.00
2024-05-09T00:17:24.527Z,96588.00
2024-05-09T00:18:24.423Z,96588.00
2024-05-09T00:19:25.042Z,96587.00
2024-05-09T00:20:28.745Z,96588.00
2024-05-09T00:21:25.291Z,96584.00
2024-05-09T00:22:24.336Z,96583.00
2024-05-09T00:23:24.410Z,96582.00
2024-05-09T00:24:24.378Z,96580.00
2024-05-09T00:25:24.304Z,96581.00
2024-05-09T00:26:24.391Z,96578.00
2024-05-09T00:27:24.313Z,96577.00
2024-05-09T00:28:24.317Z,96577.00
2024-05-09T00:29:24.536Z,96574.00
2024-05-09T00:30:32.770Z,96574.00
2024-05-09T00:31:25.467Z,96574.00
2024-05-09T00:32:24.637Z,96571.00
2024-05-09T00:33:24.780Z,96570.00
2024-05-09T00:34:24.639Z,96569.00
2024-05-09T00:35:24.590Z,96569.00
2024-05-09T00:36:24.489Z,96569.00
2024-05-09T00:37:24.497Z,96569.00
2024-05-09T00:38:24.552Z,96569.00
2024-05-09T00:39:24.510Z,96569.00
2024-05-09T00:40:31.218Z,96568.00
2024-05-09T00:41:25.645Z,96569.00
2024-05-09T00:42:24.604Z,96567.00
2024-05-09T00:43:24.582Z,96567.00
2024-05-09T00:44:24.720Z,96568.00
2024-05-09T00:45:24.596Z,96566.00
2024-05-09T00:46:24.600Z,96565.00
2024-05-09T00:47:24.854Z,96564.00
2024-05-09T00:48:24.676Z,96565.00
2024-05-09T00:49:24.746Z,96565.00
2024-05-09T00:50:30.008Z,96563.00
2024-05-09T00:51:25.624Z,96566.00
2024-05-09T00:52:24.577Z,96564.00
2024-05-09T00:53:24.604Z,96563.00
2024-05-09T00:54:24.583Z,96563.00
2024-05-09T00:55:24.592Z,96562.00
2024-05-09T00:56:24.697Z,96562.00
2024-05-09T00:57:24.609Z,96560.00
2024-05-09T00:58:24.587Z,96556.00
2024-05-09T00:59:24.817Z,96557.00
2024-05-09T01:00:31.320Z,96559.00
2024-05-09T01:01:25.886Z,96558.00
2024-05-09T01:02:25.036Z,96556.00
2024-05-09T01:03:24.995Z,96556.00
2024-05-09T01:04:24.890Z,96555.00
2024-05-09T01:05:24.865Z,96557.00
2024-05-09T01:06:24.839Z,96556.00
2024-05-09T01:07:24.859Z,96556.00
2024-05-09T01:08:24.956Z,96557.00
2024-05-09T01:09:24.860Z,96558.00
2024-05-09T01:10:32.271Z,96556.00
2024-05-09T01:11:26.064Z,96557.00
2024-05-09T01:12:25.148Z,96556.00
2024-05-09T01:13:24.931Z,96554.00
2024-05-09T01:14:24.950Z,96553.00
2024-05-09T01:15:24.948Z,96553.00
2024-05-09T01:16:24.952Z,96552.00
2024-05-09T01:17:25.162Z,96551.00
2024-05-09T01:18:25.063Z,96550.00
2024-05-09T01:19:25.186Z,96552.00
2024-05-09T01:20:32.155Z,96552.00
2024-05-09T01:21:26.038Z,96551.00
2024-05-09T01:22:24.982Z,96552.00
2024-05-09T01:23:24.972Z,96552.00
2024-05-09T01:24:24.963Z,96550.00
2024-05-09T01:25:25.051Z,96552.00
2024-05-09T01:26:25.039Z,96552.00
2024-05-09T01:27:24.990Z,96553.00
2024-05-09T01:28:24.988Z,96551.00
2024-05-09T01:29:25.111Z,96553.00
2024-05-09T01:30:33.333Z,96552.00
2024-05-09T01:31:26.077Z,96552.00
2024-05-09T01:32:25.193Z,96553.00
2024-05-09T01:33:25.218Z,96553.00
2024-05-09T01:34:25.080Z,96554.00
2024-05-09T01:35:25.224Z,96555.00
2024-05-09T01:36:25.081Z,96553.00
2024-05-09T01:37:25.101Z,96554.00
2024-05-09T01:38:25.144Z,96552.00
2024-05-09T01:39:25.116Z,96554.00
2024-05-09T01:40:33.912Z,96552.00
2024-05-09T01:41:26.301Z,96551.00
2024-05-09T01:42:25.190Z,96552.00
2024-05-09T01:43:25.189Z,96552.00
2024-05-09T01:44:25.339Z,96551.00
2024-05-09T01:45:25.208Z,96552.00
2024-05-09T01:46:25.209Z,96552.00
2024-05-09T01:47:25.355Z,96552.00
2024-05-09T01:48:25.309Z,96550.00
2024-05-09T01:49:25.383Z,96549.00
2024-05-09T01:50:36.260Z,96549.00
2024-05-09T01:51:26.172Z,96548.00
2024-05-09T01:52:25.194Z,96550.00
2024-05-09T01:53:25.230Z,96549.00
2024-05-09T01:54:25.172Z,96549.00
2024-05-09T01:55:25.299Z,96549.00
2024-05-09T01:56:25.248Z,96547.00
2024-05-09T01:57:25.190Z,96547.00
2024-05-09T01:58:25.193Z,96548.00
2024-05-09T01:59:25.335Z,96547.00
2024-05-09T02:00:34.178Z,96547.00
2024-05-09T02:01:26.420Z,96547.00
2024-05-09T02:02:25.419Z,96546.00
2024-05-09T02:03:25.487Z,96546.00
2024-05-09T02:04:25.497Z,96544.00
2024-05-09T02:05:25.574Z,96546.00
2024-05-09T02:06:25.386Z,96548.00
2024-05-09T02:07:25.395Z,96546.00
2024-05-09T02:08:25.442Z,96545.00
2024-05-09T02:09:25.372Z,96544.00
2024-05-09T02:10:31.961Z,96544.00
2024-05-09T02:11:26.536Z,96543.00
2024-05-09T02:12:25.665Z,96542.00
2024-05-09T02:13:25.506Z,96538.00
2024-05-09T02:14:25.604Z,96541.00
2024-05-09T02:15:25.457Z,96542.00
2024-05-09T02:16:25.519Z,96541.00
2024-05-09T02:17:25.747Z,96541.00
2024-05-09T02:18:25.703Z,96542.00
2024-05-09T02:19:25.565Z,96543.00
2024-05-09T02:20:33.478Z,96542.00
2024-05-09T02:21:26.480Z,96543.00
2024-05-09T02:22:25.509Z,96542.00
2024-05-09T02:23:25.681Z,96543.00
2024-05-09T02:24:25.477Z,96542.00
2024-05-09T02:25:25.486Z,96544.00
2024-05-09T02:26:25.578Z,96541.00
2024-05-09T02:27:25.495Z,96543.00
2024-05-09T02:28:25.544Z,96543.00
2024-05-09T02:29:25.663Z,96543.00
2024-05-09T02:30:35.530Z,96538.00
2024-05-09T02:31:26.682Z,96540.00
2024-05-09T02:32:25.778Z,96540.00
2024-05-09T02:33:25.875Z,96540.00
2024-05-09T02:34:25.835Z,96540.00
2024-05-09T02:35:25.783Z,96537.00
2024-05-09T02:36:25.693Z,96537.00
2024-05-09T02:37:25.674Z,96536.00
2024-05-09T02:38:25.712Z,96535.00
2024-05-09T02:39:25.685Z,96535.00
2024-05-09T02:40:35.133Z,96535.00
2024-05-09T02:41:26.924Z,96535.00
2024-05-09T02:42:25.804Z,96535.00
2024-05-09T02:43:25.780Z,96536.00
2024-05-09T02:44:25.946Z,96534.00
2024-05-09T02:45:25.815Z,96536.00
2024-05-09T02:46:25.834Z,96535.00
2024-05-09T02:47:25.986Z,96538.00
2024-05-09T02:48:25.957Z,96538.00
2024-05-09T02:49:25.967Z,96540.00
2024-05-09T02:50:33.906Z,96540.00
2024-05-09T02:51:26.995Z,96540.00
2024-05-09T02:52:47.021Z,96540.00
2024-05-09T02:53:26.010Z,96539.00
2024-05-09T02:54:25.992Z,96541.00
2024-05-09T02:55:25.984Z,96542.00
2024-05-09T02:56:26.024Z,96541.00
2024-05-09T02:57:25.999Z,96538.00
2024-05-09T02:58:26.010Z,96537.00
2024-05-09T02:59:26.243Z,96537.00
2024-05-09T03:00:34.666Z,96537.00
2024-05-09T03:01:27.063Z,96538.00
2024-05-09T03:02:26.099Z,96534.00
2024-05-09T03:03:26.525Z,96537.00
2024-05-09T03:04:26.075Z,96536.00
2024-05-09T03:05:26.095Z,96537.00
2024-05-09T03:06:26.019Z,96539.00
2024-05-09T03:07:26.010Z,96539.00
2024-05-09T03:08:26.092Z,96539.00
2024-05-09T03:09:26.032Z,96540.00
2024-05-09T03:10:28.952Z,96543.00
2024-05-09T03:11:27.227Z,96543.00
2024-05-09T03:12:26.173Z,96545.00
2024-05-09T03:13:26.108Z,96545.00
2024-05-09T03:14:26.167Z,96543.00
2024-05-09T03:15:26.067Z,96544.00
2024-05-09T03:16:26.080Z,96543.00
2024-05-09T03:17:26.172Z,96541.00
2024-05-09T03:18:26.132Z,96541.00
2024-05-09T03:19:26.201Z,96541.00
2024-05-09T03:20:32.585Z,96540.00
2024-05-09T03:21:27.234Z,96539.00
2024-05-09T03:22:26.211Z,96540.00
2024-05-09T03:23:26.247Z,96538.00
2024-05-09T03:24:26.226Z,96539.00
2024-05-09T03:25:26.207Z,96537.00
2024-05-09T03:26:26.329Z,96539.00
2024-05-09T03:27:26.203Z,96540.00
2024-05-09T03:28:26.212Z,96539.00
2024-05-09T03:29:26.432Z,96538.00
2024-05-09T03:30:35.713Z,96539.00
2024-05-09T03:31:27.455Z,96539.00
2024-05-09T03:32:26.529Z,96540.00
2024-05-09T03:33:26.837Z,96540.00
2024-05-09T03:34:26.483Z,96537.00
2024-05-09T03:35:26.666Z,96539.00
2024-05-09T03:36:26.475Z,96538.00
2024-05-09T03:37:26.494Z,96538.00
2024-05-09T03:38:26.490Z,96539.00
2024-05-09T03:39:26.435Z,96536.00
2024-05-09T03:40:29.175Z,96539.00
2024-05-09T03:41:26.605Z,96539.00
2024-05-09T03:42:26.514Z,96540.00
2024-05-09T03:43:26.523Z,96539.00
2024-05-09T03:44:26.713Z,96538.00
2024-05-09T03:45:26.534Z,96539.00
2024-05-09T03:46:26.537Z,96537.00
2024-05-09T03:47:26.711Z,96539.00
2024-05-09T03:48:26.679Z,96539.00
2024-05-09T03:49:26.602Z,96539.00
2024-05-09T03:50:33.622Z,96539.00
2024-05-09T03:51:27.542Z,96539.00
2024-05-09T03:52:26.553Z,96538.00
2024-05-09T03:53:26.570Z,96539.00
2024-05-09T03:54:26.536Z,96542.00
2024-05-09T03:55:26.555Z,96542.00
2024-05-09T03:56:26.700Z,96542.00
2024-05-09T03:57:26.560Z,96545.00
2024-05-09T03:58:26.567Z,96545.00
2024-05-09T03:59:26.630Z,96549.00
2024-05-09T04:00:35.070Z,96547.00
2024-05-09T04:01:27.599Z,96548.00
2024-05-09T04:02:26.652Z,96546.00
2024-05-09T04:03:26.887Z,96550.00
2024-05-09T04:04:26.626Z,96551.00
2024-05-09T04:05:26.585Z,96554.00
2024-05-09T04:06:26.576Z,96552.00
2024-05-09T04:07:34.309Z,96553.00
2024-05-09T04:08:34.435Z,96555.00
2024-05-09T04:09:34.323Z,96558.00
2024-05-09T04:10:35.228Z,96557.00
2024-05-09T04:11:34.491Z,96557.00
2024-05-09T04:12:34.389Z,96558.00
2024-05-09T04:13:34.334Z,96559.00
2024-05-09T04:14:34.407Z,96557.00
2024-05-09T04:15:34.339Z,96554.00
2024-05-09T04:16:34.329Z,96556.00
2024-05-09T04:17:34.703Z,96555.00
2024-05-09T04:18:34.448Z,96555.00
2024-05-09T04:19:34.425Z,96556.00
2024-05-09T04:20:38.939Z,96556.00
2024-05-09T04:21:35.379Z,96557.00
2024-05-09T04:22:34.359Z,96555.00
2024-05-09T04:23:34.461Z,96556.00
2024-05-09T04:24:34.352Z,96558.00
2024-05-09T04:25:34.335Z,96557.00
2024-05-09T04:26:34.469Z,96558.00
2024-05-09T04:27:34.356Z,96558.00
2024-05-09T04:28:34.352Z,96558.00
2024-05-09T04:29:34.496Z,96560.00
2024-05-09T04:30:38.869Z,96562.00
2024-05-09T04:31:47.201Z,96561.00
2024-05-09T04:32:47.272Z,96561.00
2024-05-09T04:33:47.200Z,96561.00
2024-05-09T04:34:47.159Z,96563.00
2024-05-09T04:35:47.127Z,96566.00
2024-05-09T04:36:47.095Z,96566.00
2024-05-09T04:37:47.137Z,96565.00
2024-05-09T04:38:47.142Z,96566.00
2024-05-09T04:39:47.107Z,96567.00
2024-05-09T04:40:47.144Z,96567.00
2024-05-09T04:41:47.118Z,96567.00
2024-05-09T04:42:47.200Z,96568.00
2024-05-09T04:43:47.378Z,96567.00
2024-05-09T04:44:47.415Z,96567.00
2024-05-09T04:45:47.546Z,96567.00
2024-05-09T04:46:47.694Z,96567.00
2024-05-09T04:47:48.147Z,96569.00
2024-05-09T04:48:47.801Z,96568.00
2024-05-09T04:49:47.807Z,96568.00
2024-05-09T04:50:47.891Z,96567.00
2024-05-09T04:51:47.924Z,96569.00
2024-05-09T04:52:48.017Z,96570.00
2024-05-09T04:53:48.106Z,96571.00
2024-05-09T04:54:48.073Z,96573.00
2024-05-09T04:55:48.174Z,96572.00
2024-05-09T04:56:48.159Z,96576.00
2024-05-09T04:57:48.195Z,96576.00
2024-05-09T04:58:48.253Z,96577.00
2024-05-09T04:59:48.290Z,96578.00
2024-05-09T05:00:48.418Z,96579.00
2024-05-09T05:01:48.474Z,96580.00
2024-05-09T05:02:48.518Z,96579.00
2024-05-09T05:03:48.684Z,96580.00
2024-05-09T05:04:48.737Z,96580.00
2024-05-09T05:05:48.806Z,96581.00
2024-05-09T05:06:48.874Z,96581.00
2024-05-09T05:07:49.057Z,96578.00
2024-05-09T05:08:49.116Z,96577.00
2024-05-09T05:09:49.197Z,96575.00
2024-05-09T05:10:49.709Z,96575.00
2024-05-09T05:11:49.553Z,96577.00
2024-05-09T05:12:49.522Z,96576.00
2024-05-09T05:13:49.686Z,96574.00
2024-05-09T05:14:49.721Z,96572.00
2024-05-09T05:15:49.841Z,96572.00
2024-05-09T05:16:49.995Z,96570.00
2024-05-09T05:17:50.244Z,96572.00
2024-05-09T05:18:50.230Z,96572.00
2024-05-09T05:19:50.363Z,96570.00
2024-05-09T05:20:50.453Z,96571.00
2024-05-09T05:21:50.440Z,96572.00
2024-05-09T05:22:50.571Z,96573.00
2024-05-09T05:23:50.652Z,96573.00
2024-05-09T05:24:50.778Z,96575.00
2024-05-09T05:25:50.901Z,96577.00
2024-05-09T05:26:50.984Z,96576.00
2024-05-09T05:27:51.088Z,96576.00
2024-05-09T05:28:51.277Z,96575.00
2024-05-09T05:29:51.313Z,96575.00
2024-05-09T05:30:51.402Z,96577.00
2024-05-09T05:31:51.668Z,96578.00
2024-05-09T05:32:52.073Z,96578.00
2024-05-09T05:33:51.988Z,96579.00
2024-05-09T05:34:51.955Z,96578.00
2024-05-09T05:35:51.904Z,96578.00
2024-05-09T05:36:52.020Z,96580.00
2024-05-09T05:37:52.135Z,96576.00
2024-05-09T05:38:52.339Z,96577.00
2024-05-09T05:39:52.341Z,96578.00
2024-05-09T05:40:52.467Z,96578.00
2024-05-09T05:41:52.561Z,96578.00
2024-05-09T05:42:52.669Z,96578.00
2024-05-09T05:43:52.824Z,96578.00
2024-05-09T05:44:52.896Z,96578.00
2024-05-09T05:45:52.968Z,96578.00
2024-05-09T05:46:53.148Z,96579.00
2024-05-09T05:47:53.442Z,96579.00
2024-05-09T05:48:53.384Z,96580.00
2024-05-09T05:49:53.410Z,96579.00
2024-05-09T05:50:53.593Z,96580.00
2024-05-09T05:51:53.608Z,96579.00
2024-05-09T05:52:53.725Z,96577.00
2024-05-09T05:53:53.868Z,96579.00
2024-05-09T05:54:53.928Z,96577.00
2024-05-09T05:55:54.124Z,96577.00
2024-05-09T05:56:54.148Z,96578.00
2024-05-09T05:57:54.211Z,96577.00
2024-05-09T05:58:54.356Z,96578.00
2024-05-09T05:59:54.416Z,96580.00
2024-05-09T06:00:54.566Z,96579.00
2024-05-09T06:01:54.740Z,96579.00
2024-05-09T06:02:54.835Z,96581.00
2024-05-09T06:03:54.938Z,96583.00
2024-05-09T06:04:55.052Z,96583.00
2024-05-09T06:05:55.099Z,96583.00
2024-05-09T06:06:55.148Z,96582.00
2024-05-09T06:07:55.302Z,96581.00
2024-05-09T06:08:55.392Z,96582.00
2024-05-09T06:09:55.490Z,96582.00
2024-05-09T06:10:55.722Z,96581.00
2024-05-09T06:11:56.487Z,96578.00
2024-05-09T06:12:55.806Z,96579.00
2024-05-09T06:13:55.925Z,96578.00
2024-05-09T06:14:55.967Z,96577.00
2024-05-09T06:15:56.079Z,96578.00
2024-05-09T06:16:58.347Z,96578.00
2024-05-09T06:17:56.322Z,96581.00
2024-05-09T06:18:56.447Z,96582.00
2024-05-09T06:19:56.401Z,96581.00
2024-05-09T06:20:56.512Z,96583.00
2024-05-09T06:21:56.578Z,96584.00
2024-05-09T06:22:56.720Z,96584.00
2024-05-09T06:23:56.765Z,96582.00
2024-05-09T06:24:56.915Z,96583.00
2024-05-09T06:25:57.049Z,96584.00
2024-05-09T06:26:57.078Z,96584.00
2024-05-09T06:27:57.177Z,96580.00
2024-05-09T06:28:57.296Z,96583.00
2024-05-09T06:29:57.398Z,96584.00
2024-05-09T06:30:57.504Z,96582.00
2024-05-09T06:32:00.117Z,96584.00
2024-05-09T06:32:57.822Z,96583.00
2024-05-09T06:33:57.778Z,96585.00
2024-05-09T06:34:57.618Z,96586.00
2024-05-09T06:35:57.590Z,96584.00
2024-05-09T06:36:57.607Z,96584.00
2024-05-09T06:37:57.635Z,96583.00
2024-05-09T06:38:57.608Z,96584.00
2024-05-09T06:39:57.632Z,96584.00
2024-05-09T06:40:57.674Z,96587.00
2024-05-09T06:41:57.635Z,96587.00
2024-05-09T06:42:57.637Z,96589.00
2024-05-09T06:43:57.647Z,96590.00
2024-05-09T06:44:57.661Z,96589.00
2024-05-09T06:45:57.620Z,96590.00
2024-05-09T06:46:59.694Z,96591.00
2024-05-09T06:47:57.904Z,96591.00
2024-05-09T06:48:57.980Z,96592.00
2024-05-09T06:49:57.846Z,96593.00
2024-05-09T06:50:57.872Z,96592.00
2024-05-09T06:51:57.855Z,96593.00
2024-05-09T06:52:57.986Z,96593.00
2024-05-09T06:53:57.946Z,96592.00
2024-05-09T06:54:57.976Z,96592.00
2024-05-09T06:55:58.066Z,96594.00
2024-05-09T06:56:58.090Z,96593.00
2024-05-09T06:57:58.214Z,96594.00
2024-05-09T06:58:58.252Z,96593.00
2024-05-09T06:59:58.210Z,96591.00
2024-05-09T07:00:58.368Z,96591.00
2024-05-09T07:01:58.451Z,96591.00
2024-05-09T07:03:00.867Z,96594.00
2024-05-09T07:03:58.624Z,96591.00
2024-05-09T07:04:58.668Z,96592.00
2024-05-09T07:05:58.555Z,96592.00
2024-05-09T07:06:58.524Z,96594.00
2024-05-09T07:07:58.547Z,96591.00
2024-05-09T07:08:58.554Z,96592.00
2024-05-09T07:09:58.549Z,96592.00
2024-05-09T07:10:58.625Z,96593.00
2024-05-09T07:11:58.662Z,96593.00
2024-05-09T07:12:58.583Z,96592.00
2024-05-09T07:13:58.594Z,96591.00
2024-05-09T07:14:58.531Z,96591.00
2024-05-09T07:15:58.535Z,96592.00
2024-05-09T07:16:58.681Z,96592.00
2024-05-09T07:17:58.688Z,96593.00
2024-05-09T07:18:58.714Z,96593.00
2024-05-09T07:19:58.659Z,96595.00
2024-05-09T07:20:58.612Z,96594.00
2024-05-09T07:21:58.572Z,96592.00
2024-05-09T07:22:58.632Z,96594.00
2024-05-09T07:23:58.569Z,96593.00
2024-05-09T07:24:58.585Z,96593.00
2024-05-09T07:25:58.581Z,96593.00
2024-05-09T07:26:58.573Z,96591.00
2024-05-09T07:27:58.574Z,96592.00
2024-05-09T07:28:58.613Z,96590.00
2024-05-09T07:29:58.599Z,96587.00
2024-05-09T07:30:58.702Z,96589.00
2024-05-09T07:31:58.841Z,96589.00
2024-05-09T07:32:59.139Z,96590.00
2024-05-09T07:33:59.212Z,96590.00
2024-05-09T07:34:59.159Z,96588.00
2024-05-09T07:35:59.172Z,96588.00
2024-05-09T07:36:59.301Z,96588.00
2024-05-09T07:37:59.497Z,96588.00
2024-05-09T07:38:59.499Z,96587.00
2024-05-09T07:39:59.617Z,96589.00
2024-05-09T07:40:59.757Z,96588.00
2024-05-09T07:41:59.828Z,96589.00
2024-05-09T07:42:59.947Z,96589.00
2024-05-09T07:44:00.105Z,96587.00
2024-05-09T07:45:11.195Z,96586.00
2024-05-09T07:46:48.245Z,96585.00
2024-05-09T07:51:48.124Z,96583.00
2024-05-09T07:53:07.607Z,96581.00
2024-05-09T07:53:22.191Z,96582.00
2024-05-09T07:53:35.939Z,96583.00
2024-05-09T07:54:01.888Z,96580.00
2024-05-09T07:55:00.487Z,96578.00
2024-05-09T07:56:00.295Z,96579.00
2024-05-09T07:57:00.386Z,96580.00
2024-05-09T07:58:00.308Z,96579.00
2024-05-09T07:59:00.188Z,96576.00
2024-05-09T08:00:00.242Z,96575.00
2024-05-09T08:01:00.366Z,96575.00
2024-05-09T08:02:00.663Z,96575.00
2024-05-09T08:03:00.371Z,96577.00
2024-05-09T08:04:00.637Z,96574.00
2024-05-09T08:05:00.632Z,96574.00
2024-05-09T08:06:00.504Z,96575.00
2024-05-09T08:07:00.586Z,96575.00
2024-05-09T08:08:00.623Z,96576.00
2024-05-09T08:09:05.363Z,96578.00
2024-05-09T08:10:01.757Z,96577.00
2024-05-09T08:11:00.749Z,96575.00
2024-05-09T08:12:00.759Z,96576.00
2024-05-09T08:13:00.790Z,96577.00
2024-05-09T08:14:00.722Z,96573.00
2024-05-09T08:15:00.738Z,96574.00
2024-05-09T08:16:00.919Z,96573.00
2024-05-09T08:17:00.811Z,96570.00
2024-05-09T08:18:00.932Z,96570.00
2024-05-09T08:19:00.836Z,96572.00
2024-05-09T08:20:02.985Z,96573.00
2024-05-09T08:21:00.773Z,96571.00
2024-05-09T08:22:00.783Z,96570.00
2024-05-09T08:23:00.779Z,96569.00
2024-05-09T08:24:00.788Z,96569.00
2024-05-09T08:25:00.886Z,96570.00
2024-05-09T08:26:00.742Z,96570.00
2024-05-09T08:27:00.764Z,96568.00
2024-05-09T08:28:00.885Z,96570.00
2024-05-09T08:29:00.758Z,96569.00
2024-05-09T08:30:00.786Z,96571.00
2024-05-09T08:31:03.143Z,96571.00
2024-05-09T08:32:00.790Z,96570.00
2024-05-09T08:33:00.852Z,96570.00
2024-05-09T08:34:01.021Z,96567.00
2024-05-09T08:35:00.771Z,96569.00
2024-05-09T08:36:00.764Z,96568.00
2024-05-09T08:37:06.155Z,96566.00
2024-05-09T08:38:01.882Z,96563.00
2024-05-09T08:39:00.789Z,96566.00
2024-05-09T08:40:00.887Z,96565.00
2024-05-09T08:41:00.791Z,96566.00
2024-05-09T08:42:00.811Z,96565.00
2024-05-09T08:43:00.858Z,96564.00
2024-05-09T08:44:00.831Z,96563.00
2024-05-09T08:45:00.772Z,96562.00
2024-05-09T08:46:00.858Z,96561.00
2024-05-09T08:47:00.935Z,96559.00
2024-05-09T08:48:01.148Z,96558.00
2024-05-09T08:49:01.319Z,96558.00
2024-05-09T08:50:01.485Z,96555.00
2024-05-09T08:51:01.387Z,96556.00
2024-05-09T08:52:01.556Z,96555.00
2024-05-09T08:53:01.653Z,96553.00
2024-05-09T08:54:01.706Z,96555.00
2024-05-09T08:55:01.923Z,96555.00
2024-05-09T08:56:01.930Z,96554.00
2024-05-09T08:57:02.038Z,96557.00
2024-05-09T08:58:02.262Z,96558.00
2024-05-09T08:59:02.255Z,96556.00
2024-05-09T09:00:03.525Z,96556.00
2024-05-09T09:01:02.530Z,96558.00
2024-05-09T09:02:02.671Z,96556.00
2024-05-09T09:03:02.641Z,96557.00
2024-05-09T09:04:10.554Z,96555.00
2024-05-09T09:05:10.558Z,96554.00
2024-05-09T09:06:10.444Z,96555.00
2024-05-09T09:07:10.516Z,96551.00
2024-05-09T09:08:10.449Z,96551.00
2024-05-09T09:09:10.457Z,96550.00
2024-05-09T09:10:15.187Z,96550.00
2024-05-09T09:11:11.502Z,96550.00
2024-05-09T09:12:10.762Z,96549.00
2024-05-09T09:13:10.598Z,96550.00
2024-05-09T09:14:10.442Z,96549.00
2024-05-09T09:15:10.460Z,96548.00
2024-05-09T09:16:10.549Z,96546.00
2024-05-09T09:17:10.523Z,96546.00
2024-05-09T09:18:12.363Z,96545.00
2024-05-09T09:19:10.676Z,96543.00
2024-05-09T09:20:14.420Z,96540.00
2024-05-09T09:21:11.565Z,96541.00
2024-05-09T09:22:10.641Z,96539.00
2024-05-09T09:23:10.611Z,96536.00
2024-05-09T09:24:10.565Z,96535.00
2024-05-09T09:25:10.722Z,96537.00
2024-05-09T09:26:10.717Z,96539.00
2024-05-09T09:27:10.580Z,96538.00
2024-05-09T09:28:10.760Z,96539.00
2024-05-09T09:29:10.707Z,96538.00
2024-05-09T09:30:22.968Z,96538.00
2024-05-09T09:31:11.842Z,96539.00
2024-05-09T09:32:10.811Z,96537.00
2024-05-09T09:33:10.990Z,96539.00
2024-05-09T09:34:10.958Z,96538.00
2024-05-09T09:35:10.831Z,96535.00
2024-05-09T09:36:11.696Z,96535.00
2024-05-09T09:37:10.861Z,96532.00
2024-05-09T09:38:11.219Z,96531.00
2024-05-09T09:39:10.834Z,96530.00
2024-05-09T09:40:13.201Z,96528.00
2024-05-09T09:41:11.066Z,96528.00
2024-05-09T09:42:11.042Z,96526.00
2024-05-09T09:43:11.224Z,96526.00
2024-05-09T09:44:11.106Z,96526.00
2024-05-09T09:45:11.176Z,96524.00
2024-05-09T09:46:12.768Z,96525.00
2024-05-09T09:47:11.336Z,96526.00
2024-05-09T09:48:11.445Z,96527.00
2024-05-09T09:49:11.463Z,96528.00
2024-05-09T09:50:14.569Z,96527.00
2024-05-09T09:51:12.445Z,96526.00
2024-05-09T09:52:11.568Z,96527.00
2024-05-09T09:53:11.433Z,96528.00
2024-05-09T09:54:11.431Z,96526.00
2024-05-09T09:55:11.524Z,96523.00
2024-05-09T09:56:11.503Z,96525.00
2024-05-09T09:57:16.521Z,96523.00
2024-05-09T09:58:13.929Z,96521.00
2024-05-09T09:59:11.471Z,96522.00
2024-05-09T10:00:12.044Z,96521.00
2024-05-09T10:01:11.533Z,96520.00
2024-05-09T10:02:11.666Z,96518.00
2024-05-09T10:03:11.644Z,96521.00
2024-05-09T10:04:11.750Z,96519.00
2024-05-09T10:05:11.686Z,96516.00
2024-05-09T10:06:11.536Z,96516.00
2024-05-09T10:07:11.588Z,96517.00
2024-05-09T10:08:11.530Z,96519.00
2024-05-09T10:09:11.492Z,96514.00
2024-05-09T10:11:11.572Z,96514.00
2024-05-09T10:12:11.553Z,96515.00
2024-05-09T10:13:11.524Z,96517.00
2024-05-09T10:14:11.514Z,96517.00
2024-05-09T10:15:11.526Z,96517.00
2024-05-09T10:16:12.068Z,96515.00
2024-05-09T10:17:11.641Z,96514.00
2024-05-09T10:18:11.830Z,96513.00
2024-05-09T10:19:11.835Z,96514.00
2024-05-09T10:20:18.495Z,96512.00
2024-05-09T10:21:12.800Z,96513.00
2024-05-09T10:22:11.812Z,96512.00
2024-05-09T10:23:11.782Z,96511.00
2024-05-09T10:24:11.787Z,96511.00
2024-05-09T10:25:11.838Z,96508.00
2024-05-09T10:26:11.799Z,96508.00
2024-05-09T10:27:11.808Z,96507.00
2024-05-09T10:28:16.962Z,96508.00
2024-05-09T10:29:11.787Z,96507.00
2024-05-09T10:31:12.052Z,96504.00
2024-05-09T10:32:11.911Z,96505.00
2024-05-09T10:33:17.083Z,96504.00
2024-05-09T10:34:12.106Z,96503.00
2024-05-09T10:35:12.010Z,96502.00
2024-05-09T10:36:11.981Z,96503.00
2024-05-09T10:37:11.993Z,96503.00
2024-05-09T10:38:11.988Z,96502.00
2024-05-09T10:39:11.992Z,96503.00
2024-05-09T10:40:19.846Z,96502.00
2024-05-09T10:41:14.051Z,96499.00
2024-05-09T10:42:12.080Z,96499.00
2024-05-09T10:43:17.359Z,96497.00
2024-05-09T10:44:12.093Z,96494.00
2024-05-09T10:45:12.090Z,96494.00
2024-05-09T10:46:12.367Z,96494.00
2024-05-09T10:47:12.243Z,96495.00
2024-05-09T10:48:12.348Z,96492.00
2024-05-09T10:49:12.454Z,96492.00
2024-05-09T10:50:18.595Z,96492.00
2024-05-09T10:51:13.468Z,96489.00
2024-05-09T10:52:12.487Z,96489.00
2024-05-09T10:53:12.457Z,96489.00
2024-05-09T10:54:12.455Z,96487.00
2024-05-09T10:55:12.505Z,96486.00
2024-05-09T10:56:12.470Z,96485.00
2024-05-09T10:57:12.480Z,96485.00
2024-05-09T10:58:12.650Z,96484.00
2024-05-09T10:59:12.490Z,96485.00
2024-05-09T11:00:19.035Z,96484.00
2024-05-09T11:01:14.070Z,96483.00
2024-05-09T11:02:12.733Z,96482.00
2024-05-09T11:03:12.572Z,96483.00
2024-05-09T11:04:12.811Z,96482.00
2024-05-09T11:05:12.633Z,96482.00
2024-05-09T11:06:12.481Z,96482.00
2024-05-09T11:07:12.564Z,96482.00
2024-05-09T11:08:12.497Z,96480.00
2024-05-09T11:09:12.524Z,96483.00
2024-05-09T11:10:14.789Z,96484.00
2024-05-09T11:11:13.500Z,96483.00
2024-05-09T11:12:12.507Z,96480.00
2024-05-09T11:13:12.609Z,96480.00
2024-05-09T11:14:12.546Z,96481.00
2024-05-09T11:15:12.502Z,96480.00
2024-05-09T11:16:12.667Z,96480.00
2024-05-09T11:17:12.602Z,96479.00
2024-05-09T11:18:12.619Z,96478.00
2024-05-09T11:19:12.671Z,96480.00
2024-05-09T11:20:17.138Z,96476.00
2024-05-09T11:21:14.054Z,96477.00
2024-05-09T11:22:12.665Z,96478.00
2024-05-09T11:23:12.599Z,96476.00
2024-05-09T11:24:12.602Z,96475.00
2024-05-09T11:25:12.667Z,96474.00
2024-05-09T11:26:12.580Z,96472.00
2024-05-09T11:27:12.591Z,96472.00
2024-05-09T11:28:12.647Z,96471.00
2024-05-09T11:29:13.823Z,96470.00
2024-05-09T11:30:20.833Z,96472.00
2024-05-09T11:31:13.664Z,96471.00
2024-05-09T11:32:12.688Z,96471.00
2024-05-09T11:33:15.747Z,96470.00
2024-05-09T11:34:12.713Z,96469.00
2024-05-09T11:35:12.633Z,96470.00
2024-05-09T11:36:12.651Z,96471.00
2024-05-09T11:37:12.735Z,96465.00
2024-05-09T11:38:12.666Z,96466.00
2024-05-09T11:39:12.665Z,96469.00
2024-05-09T11:40:21.016Z,96465.00
2024-05-09T11:41:13.650Z,96464.00
2024-05-09T11:42:12.680Z,96465.00
2024-05-09T11:43:12.757Z,96463.00
2024-05-09T11:44:12.700Z,96464.00
2024-05-09T11:45:12.705Z,96464.00
2024-05-09T11:46:12.803Z,96465.00
2024-05-09T11:47:12.785Z,96460.00
2024-05-09T11:48:12.802Z,96463.00
2024-05-09T11:49:12.922Z,96461.00
2024-05-09T11:51:12.848Z,96461.00
2024-05-09T11:52:13.043Z,96458.00